Time;durP1;ratioP1;P1;durP2;ratioP2;P2;SDS_P1;SDS_P2;PMS_P1;PMS_P2;Temp;Humidity;BMP_temperature;BMP_pressure;BME280_temperature;BME280_humidity;BME280_pressure;Samples;Min_cycle;Max_cycle;Signal;HPM_P1;HPM_P2
2022/07/17 00:01:19;;;;;;;6.25;3.40;;;;;;;22.27;51.73;95816.94;5087694;28;20031;-80
2022/07/17 00:03:44;;;;;;;5.68;3.50;;;;;;;22.17;52.19;95823.03;5078915;28;20073;-79
2022/07/17 00:06:10;;;;;;;5.78;3.45;;;;;;;22.17;51.93;95825.75;5097325;28;20032;-80
2022/07/17 00:08:35;;;;;;;6.22;3.72;;;;;;;22.13;51.70;95830.06;5097608;28;20032;-79
2022/07/17 00:11:01;;;;;;;4.40;3.25;;;;;;;22.06;52.25;95836.47;5068750;28;20028;-79
2022/07/17 00:13:27;;;;;;;5.60;3.65;;;;;;;22.02;52.54;95832.56;5086755;28;20048;-80
2022/07/17 00:15:52;;;;;;;5.28;3.63;;;;;;;21.99;52.08;95830.31;5068426;28;20039;-80
2022/07/17 00:18:18;;;;;;;5.05;3.40;;;;;;;21.84;52.51;95828.09;5068536;28;20048;-79
2022/07/17 00:20:43;;;;;;;4.65;3.10;;;;;;;21.82;52.73;95830.22;5086772;28;20020;-79
2022/07/17 00:23:09;;;;;;;8.93;3.40;;;;;;;21.79;52.66;95831.53;5051839;28;20032;-79
2022/07/17 00:25:35;;;;;;;5.57;3.70;;;;;;;21.78;52.64;95834.50;5067854;28;20059;-79
2022/07/17 00:28:00;;;;;;;4.15;3.30;;;;;;;21.84;52.56;95833.56;5086200;28;20090;-79
2022/07/17 00:30:26;;;;;;;6.18;3.00;;;;;;;21.86;52.90;95836.84;5051353;28;20081;-80
2022/07/17 00:32:52;;;;;;;5.07;3.20;;;;;;;21.88;52.48;95833.91;5086064;28;20028;-80
2022/07/17 00:35:17;;;;;;;6.10;3.08;;;;;;;21.90;53.23;95832.59;5086153;28;20028;-80
2022/07/17 00:37:43;;;;;;;4.88;3.40;;;;;;;21.93;52.93;95836.72;5085872;28;20024;-80
2022/07/17 00:40:10;;;;;;;4.38;3.42;;;;;;;21.94;52.07;95838.41;5067866;28;20020;-80
2022/07/17 00:42:38;;;;;;;3.92;3.10;;;;;;;21.94;52.56;95843.88;5068333;28;20036;-80
2022/07/17 00:45:04;;;;;;;3.55;3.05;;;;;;;21.93;51.89;95839.47;5068542;28;20097;-80
2022/07/17 00:47:29;;;;;;;5.10;3.17;;;;;;;21.95;52.03;95842.78;5086709;28;20024;-79
2022/07/17 00:49:55;;;;;;;7.53;2.80;;;;;;;21.92;52.08;95846.00;5034293;28;20105;-79
2022/07/17 00:52:20;;;;;;;5.47;2.90;;;;;;;21.90;52.02;95842.69;5086451;28;20020;-79
2022/07/17 00:54:46;;;;;;;4.60;2.75;;;;;;;21.89;52.54;95847.31;5051642;28;20024;-79
2022/07/17 00:57:13;;;;;;;4.75;3.38;;;;;;;21.84;52.69;95856.19;5035146;28;20093;-79
2022/07/17 00:59:39;;;;;;;3.67;2.90;;;;;;;21.86;52.45;95851.34;5051313;28;20477;-79
2022/07/17 01:02:06;;;;;;;4.32;2.75;;;;;;;21.84;52.13;95852.66;5086501;28;20024;-79
2022/07/17 01:04:32;;;;;;;5.63;2.97;;;;;;;21.84;52.13;95850.75;5067905;28;20502;-80
2022/07/17 01:06:59;;;;;;;3.97;3.03;;;;;;;21.82;52.27;95858.38;5086083;28;20021;-79
2022/07/17 01:09:24;;;;;;;4.82;3.10;;;;;;;21.80;52.86;95852.31;5086258;28;20059;-80
2022/07/17 01:11:50;;;;;;;5.45;2.83;;;;;;;21.80;52.84;95855.03;5051053;28;20100;-80
2022/07/17 01:14:16;;;;;;;4.82;2.83;;;;;;;21.80;52.30;95854.19;5051264;28;20044;-80
2022/07/17 01:16:42;;;;;;;4.95;2.72;;;;;;;21.85;51.92;95851.59;5067652;28;20592;-80
2022/07/17 01:19:07;;;;;;;6.80;2.60;;;;;;;21.88;51.59;95851.09;5034910;28;20020;-80
2022/07/17 01:21:44;;;;;;;3.75;3.00;;;;;;;21.88;51.72;95839.38;5085827;28;20028;-79
2022/07/17 01:24:09;;;;;;;5.65;3.05;;;;;;;21.88;51.28;95842.09;5068012;28;20402;-80
2022/07/17 01:26:35;;;;;;;4.97;3.17;;;;;;;21.91;51.38;95844.34;5068144;28;20024;-79
2022/07/17 01:29:00;;;;;;;5.60;2.70;;;;;;;21.93;51.43;95843.03;5067640;28;20523;-79
2022/07/17 01:31:26;;;;;;;4.95;3.33;;;;;;;21.89;51.57;95836.41;5067569;28;20028;-79
2022/07/17 01:33:51;;;;;;;5.03;2.92;;;;;;;21.85;51.65;95846.97;5068147;28;20028;-80
2022/07/17 01:36:22;;;;;;;8.13;3.22;;;;;;;21.84;51.83;95856.19;5051766;28;20043;-79
2022/07/17 01:38:48;;;;;;;4.22;3.08;;;;;;;21.88;51.65;95853.84;5051307;28;20123;-79
2022/07/17 01:41:14;;;;;;;9.05;3.50;;;;;;;21.92;51.68;95855.03;5068056;28;20415;-79
2022/07/17 01:43:39;;;;;;;4.20;3.25;;;;;;;21.92;51.54;95846.84;5067560;28;20016;-80
2022/07/17 01:46:05;;;;;;;4.10;2.92;;;;;;;21.98;51.67;95850.50;5086062;28;20051;-79
2022/07/17 01:48:30;;;;;;;6.85;3.50;;;;;;;21.98;51.24;95848.63;5085475;28;20114;-80
2022/07/17 01:50:56;;;;;;;5.80;3.10;;;;;;;21.97;51.27;95848.84;5085647;28;20013;-79
2022/07/17 01:53:21;;;;;;;4.35;3.15;;;;;;;21.92;51.73;95857.78;5067948;28;20028;-79
2022/07/17 01:55:47;;;;;;;3.97;2.95;;;;;;;21.92;51.01;95855.03;5050951;28;20089;-79
2022/07/17 01:58:13;;;;;;;3.92;2.70;;;;;;;21.80;51.31;95855.03;5051136;28;20024;-79
2022/07/17 02:00:39;;;;;;;5.13;3.05;;;;;;;21.68;51.27;95865.09;5050584;28;20534;-79
2022/07/17 02:03:04;;;;;;;3.58;2.90;;;;;;;21.64;51.12;95850.25;5085662;28;20483;-79
2022/07/17 02:05:30;;;;;;;3.92;3.42;;;;;;;21.58;50.98;95852.88;5085484;28;20036;-79
2022/07/17 02:07:55;;;;;;;7.45;2.95;;;;;;;21.50;50.60;95858.69;5050553;28;20035;-79
2022/07/17 02:10:20;;;;;;;5.13;3.25;;;;;;;21.35;51.01;95859.97;5085173;28;20032;-79
2022/07/17 02:12:46;;;;;;;5.57;2.95;;;;;;;21.45;51.28;95853.09;5067270;28;20016;-79
2022/07/17 02:15:12;;;;;;;5.57;2.97;;;;;;;21.52;52.01;95856.56;5066687;28;20114;-79
2022/07/17 02:17:38;;;;;;;5.65;3.10;;;;;;;21.55;50.90;95849.78;5034240;28;20055;-79
2022/07/17 02:20:05;;;;;;;4.38;2.85;;;;;;;21.49;50.58;95854.28;5085525;28;20024;-80
2022/07/17 02:22:30;;;;;;;6.43;2.70;;;;;;;21.43;50.70;95860.69;5085028;28;20434;-79
2022/07/17 02:24:56;;;;;;;5.07;2.90;;;;;;;21.42;50.57;95859.03;5085679;28;20474;-80
2022/07/17 02:27:21;;;;;;;3.72;2.60;;;;;;;21.47;50.53;95856.44;5084354;28;20032;-79
2022/07/17 02:29:46;;;;;;;6.70;2.80;;;;;;;21.47;50.10;95850.97;5069560;28;20047;-78
2022/07/17 02:32:12;;;;;;;4.22;2.88;;;;;;;21.48;50.15;95861.66;5088480;28;20422;-80
2022/07/17 02:34:37;;;;;;;3.90;2.65;;;;;;;21.43;50.21;95857.97;5070874;28;20043;-80
2022/07/17 02:37:03;;;;;;;5.97;2.65;;;;;;;21.46;50.43;95868.41;5088759;28;20024;-79
2022/07/17 02:39:28;;;;;;;3.65;2.35;;;;;;;21.45;50.36;95870.31;5071053;28;20024;-79
2022/07/17 02:41:54;;;;;;;5.03;2.83;;;;;;;21.46;50.10;95873.84;5070578;28;20024;-79
2022/07/17 02:44:19;;;;;;;4.00;2.63;;;;;;;21.49;49.92;95870.66;5070126;28;20020;-79
2022/07/17 02:46:44;;;;;;;3.03;2.40;;;;;;;21.42;50.04;95864.50;5089537;28;20024;-80
2022/07/17 02:49:10;;;;;;;3.78;2.65;;;;;;;21.41;50.42;95873.75;5087820;28;20047;-80
2022/07/17 02:51:35;;;;;;;9.48;2.75;;;;;;;21.44;50.70;95879.53;5070962;28;20030;-80
2022/07/17 02:54:01;;;;;;;5.13;2.95;;;;;;;21.45;50.42;95878.50;5054003;28;20020;-80
2022/07/17 02:56:26;;;;;;;4.20;2.90;;;;;;;21.45;50.85;95880.38;5070762;28;20020;-79
2022/07/17 02:58:52;;;;;;;3.90;2.92;;;;;;;21.44;50.38;95884.19;5070735;28;20024;-80
2022/07/17 03:01:17;;;;;;;3.90;2.75;;;;;;;21.46;51.05;95887.50;5069743;28;20031;-79
2022/07/17 03:03:43;;;;;;;4.53;3.38;;;;;;;21.47;50.47;95878.25;5088773;28;20020;-80
2022/07/17 03:06:09;;;;;;;5.78;3.10;;;;;;;21.40;50.62;95877.53;5053058;28;20039;-80
2022/07/17 03:08:34;;;;;;;5.18;2.92;;;;;;;21.44;49.92;95890.47;5088709;28;20024;-80
2022/07/17 03:11:00;;;;;;;5.78;2.97;;;;;;;21.45;50.71;95894.03;5053305;28;20490;-80
2022/07/17 03:13:25;;;;;;;6.82;2.95;;;;;;;21.42;50.88;95898.06;5088602;28;20418;-79
2022/07/17 03:15:51;;;;;;;5.70;3.10;;;;;;;21.39;50.41;95895.81;5088357;28;20028;-80
2022/07/17 03:18:16;;;;;;;3.80;3.08;;;;;;;21.32;50.44;95893.19;5088732;28;20028;-79
2022/07/17 03:20:41;;;;;;;4.57;2.90;;;;;;;21.26;50.32;95909.66;5098709;28;20023;-79
2022/07/17 03:23:07;;;;;;;5.68;2.90;;;;;;;21.18;50.19;95908.94;5075897;28;20415;-80
2022/07/17 03:25:32;;;;;;;4.10;2.97;;;;;;;21.13;50.52;95900.63;5088209;28;20433;-79
2022/07/17 03:27:58;;;;;;;5.53;2.83;;;;;;;21.16;50.77;95900.16;5087765;28;20410;-79
2022/07/17 03:30:24;;;;;;;5.40;3.00;;;;;;;21.17;50.54;95909.16;5053362;28;20050;-79
2022/07/17 03:32:49;;;;;;;4.60;2.90;;;;;;;21.20;50.29;95914.16;5069210;28;20029;-79
2022/07/17 03:35:16;;;;;;;4.88;3.03;;;;;;;21.18;50.53;95916.28;5088121;28;20024;-79
2022/07/17 03:37:43;;;;;;;5.03;2.80;;;;;;;21.19;50.38;95920.66;5069755;28;20039;-79
2022/07/17 03:40:09;;;;;;;4.75;3.30;;;;;;;21.16;50.32;95918.41;5069775;28;20028;-79
2022/07/17 03:42:34;;;;;;;3.58;2.90;;;;;;;21.15;50.72;95914.03;5069193;28;20020;-80
2022/07/17 03:45:00;;;;;;;4.55;3.20;;;;;;;21.08;50.20;95914.94;5069456;28;20031;-80
2022/07/17 03:47:26;;;;;;;5.63;2.92;;;;;;;21.08;50.24;95914.13;5087727;28;20028;-80
2022/07/17 03:49:51;;;;;;;3.97;3.13;;;;;;;21.09;50.20;95924.78;5087150;28;20024;-80
2022/07/17 03:52:17;;;;;;;8.52;2.92;;;;;;;21.14;49.84;95934.16;5087893;28;20028;-79
2022/07/17 03:54:42;;;;;;;4.22;3.05;;;;;;;21.18;49.75;95935.38;5086916;28;20035;-79
2022/07/17 03:57:07;;;;;;;4.07;3.20;;;;;;;21.14;49.52;95935.00;5052777;28;20551;-79
2022/07/17 03:59:33;;;;;;;5.57;3.05;;;;;;;21.11;49.26;95932.72;5086761;28;20020;-79
2022/07/17 04:01:58;;;;;;;5.93;3.05;;;;;;;21.04;49.50;95940.19;5087221;28;20024;-81
2022/07/17 04:04:24;;;;;;;4.30;3.00;;;;;;;21.01;49.19;95946.91;5069106;28;20021;-79
2022/07/17 04:06:49;;;;;;;4.70;3.05;;;;;;;20.96;49.07;95942.16;5086570;28;20449;-79
2022/07/17 04:09:15;;;;;;;3.78;3.03;;;;;;;21.05;48.77;95948.13;5087577;28;20031;-79
2022/07/17 04:11:40;;;;;;;6.00;3.13;;;;;;;21.11;49.47;95952.66;5086230;28;20031;-80
2022/07/17 04:14:05;;;;;;;5.72;3.10;;;;;;;20.98;48.60;95952.84;5052187;28;20048;-79
2022/07/17 04:16:31;;;;;;;4.90;3.15;;;;;;;21.04;47.74;95956.56;5071793;28;20031;-80
2022/07/17 04:18:56;;;;;;;4.40;2.70;;;;;;;21.13;48.13;95957.88;5092601;28;20028;-79
2022/07/17 04:21:22;;;;;;;5.63;3.00;;;;;;;21.22;49.53;95958.38;5086498;28;20035;-79
2022/07/17 04:23:47;;;;;;;4.25;3.00;;;;;;;21.22;48.57;95956.50;5086327;28;20078;-80
2022/07/17 04:26:13;;;;;;;4.13;2.70;;;;;;;21.32;49.17;95955.94;5068741;28;20020;-80
2022/07/17 04:28:39;;;;;;;3.72;2.80;;;;;;;21.45;48.31;95952.16;5067841;28;20486;-80
2022/07/17 04:31:04;;;;;;;3.67;2.70;;;;;;;21.51;47.57;95955.84;5086950;28;20027;-81
2022/07/17 04:33:30;;;;;;;3.70;2.72;;;;;;;21.67;49.24;95961.69;5085735;28;20039;-79
2022/07/17 04:35:55;;;;;;;3.38;2.63;;;;;;;21.71;47.41;95962.88;5068398;28;20031;-80
2022/07/17 04:38:20;;;;;;;5.05;2.55;;;;;;;21.89;47.34;95963.88;5068111;28;20036;-81
2022/07/17 04:40:46;;;;;;;5.70;2.85;;;;;;;22.06;48.10;95964.84;5068008;28;20108;-81
2022/07/17 04:43:11;;;;;;;4.78;2.80;;;;;;;22.19;47.85;95963.78;5086206;28;20093;-81
2022/07/17 04:45:37;;;;;;;5.60;3.05;;;;;;;22.29;47.90;95971.38;5051129;28;20032;-79
2022/07/17 04:48:03;;;;;;;4.15;2.60;;;;;;;22.39;46.49;95976.25;5051584;28;20047;-80
2022/07/17 04:50:28;;;;;;;4.93;3.03;;;;;;;22.44;46.16;95979.06;5050770;28;20020;-80
2022/07/17 04:52:54;;;;;;;5.95;2.92;;;;;;;22.58;45.88;95985.13;5085711;28;20457;-80
2022/07/17 04:55:19;;;;;;;5.43;2.80;;;;;;;22.71;45.55;95988.69;5085667;28;20024;-80
2022/07/17 04:57:45;;;;;;;5.18;3.13;;;;;;;22.84;46.99;95988.41;5086154;28;20024;-80
2022/07/17 05:00:11;;;;;;;6.35;2.72;;;;;;;23.00;47.49;95993.34;5051286;28;20027;-80
2022/07/17 05:02:37;;;;;;;4.00;2.83;;;;;;;23.12;45.69;95993.34;5067929;28;20023;-80
2022/07/17 05:05:03;;;;;;;7.10;3.05;;;;;;;23.16;44.71;95995.31;5067995;28;20078;-80
2022/07/17 05:07:28;;;;;;;4.55;2.97;;;;;;;23.32;45.01;96004.66;5067972;28;20066;-80
2022/07/17 05:09:54;;;;;;;5.47;2.75;;;;;;;23.46;45.41;95997.00;5051181;28;20505;-80
2022/07/17 05:12:19;;;;;;;3.83;2.72;;;;;;;23.49;44.83;95995.66;5066759;28;20036;-79
2022/07/17 05:14:45;;;;;;;5.22;2.90;;;;;;;23.65;44.73;95991.28;5068114;28;20047;-80
2022/07/17 05:17:10;;;;;;;5.18;2.83;;;;;;;23.82;44.72;95993.22;5050441;28;20035;-81
2022/07/17 05:19:36;;;;;;;5.53;2.90;;;;;;;23.93;45.04;95997.81;5067868;28;20493;-80
2022/07/17 05:22:01;;;;;;;4.25;2.72;;;;;;;23.94;44.38;95993.16;5050846;28;20097;-81
2022/07/17 05:24:27;;;;;;;6.95;3.17;;;;;;;24.05;44.50;95994.97;5051218;28;20032;-79
2022/07/17 05:26:52;;;;;;;5.05;2.95;;;;;;;24.13;43.86;96001.94;5085799;28;20479;-80
2022/07/17 05:29:18;;;;;;;4.65;2.60;;;;;;;24.20;44.15;95990.81;5067410;28;20036;-80
2022/07/17 05:31:43;;;;;;;5.25;2.70;;;;;;;24.36;43.48;95993.81;5051076;28;20020;-80
2022/07/17 05:34:08;;;;;;;5.57;2.95;;;;;;;24.33;42.53;95989.66;5049643;28;20020;-80
2022/07/17 05:36:34;;;;;;;4.13;2.63;;;;;;;24.27;42.70;95999.72;5085693;28;20028;-82
2022/07/17 05:38:59;;;;;;;5.45;2.97;;;;;;;24.42;42.72;96001.03;5049981;28;20024;-80
2022/07/17 05:41:25;;;;;;;3.85;2.60;;;;;;;24.52;42.23;95994.88;5085619;28;20437;-80
2022/07/17 05:43:50;;;;;;;6.18;3.72;;;;;;;24.60;41.84;96004.56;5085353;28;20507;-80
2022/07/17 05:46:15;;;;;;;4.00;2.80;;;;;;;24.37;42.25;96003.69;5085511;28;20452;-81
2022/07/17 05:48:41;;;;;;;3.50;2.65;;;;;;;24.59;41.28;96002.88;5067075;28;20420;-80
2022/07/17 05:51:06;;;;;;;5.82;2.88;;;;;;;24.68;42.22;96001.38;5084763;28;20437;-80
2022/07/17 05:53:32;;;;;;;4.40;3.20;;;;;;;24.70;41.34;96004.69;5085999;28;20411;-80
2022/07/17 05:55:59;;;;;;;3.85;2.63;;;;;;;24.97;39.90;96000.41;5049865;28;20047;-81
2022/07/17 05:58:24;;;;;;;4.20;2.60;;;;;;;25.02;40.61;96005.97;5086265;28;20073;-81
2022/07/17 06:00:50;;;;;;;7.75;2.78;;;;;;;24.98;40.79;96005.63;5067150;28;20039;-80
2022/07/17 06:03:15;;;;;;;3.75;2.33;;;;;;;25.16;39.50;96009.13;5067108;28;20021;-81
2022/07/17 06:05:41;;;;;;;4.40;2.50;;;;;;;25.27;39.53;96002.69;5071204;28;20024;-80
2022/07/17 06:08:06;;;;;;;3.50;2.10;;;;;;;25.39;39.43;96008.00;5070480;28;20035;-82
2022/07/17 06:10:32;;;;;;;5.10;2.50;;;;;;;25.56;37.61;96004.34;5071384;28;20031;-80
2022/07/17 06:12:58;;;;;;;6.85;2.42;;;;;;;25.40;37.49;96009.69;5054106;28;20032;-81
2022/07/17 06:15:23;;;;;;;5.95;2.60;;;;;;;25.12;37.33;96010.72;5089076;28;20047;-80
2022/07/17 06:17:49;;;;;;;3.65;2.50;;;;;;;25.24;37.04;96010.59;5053485;28;20531;-81
2022/07/17 06:20:15;;;;;;;3.60;2.40;;;;;;;25.49;36.77;96004.53;5089651;28;20074;-83
2022/07/17 06:22:41;;;;;;;4.63;2.70;;;;;;;25.46;37.80;96005.06;5070714;28;20024;-80
2022/07/17 06:25:07;;;;;;;3.83;2.42;;;;;;;25.52;35.56;96001.28;5070421;28;20129;-80
2022/07/17 06:27:33;;;;;;;3.50;2.30;;;;;;;24.99;36.87;96007.28;5054746;28;20036;-81
2022/07/17 06:29:58;;;;;;;4.53;2.72;;;;;;;24.69;37.67;96006.63;5053681;28;20043;-80
2022/07/17 06:32:23;;;;;;;11.85;2.72;;;;;;;24.53;37.81;96013.81;5070541;28;20024;-80
2022/07/17 06:34:49;;;;;;;6.95;2.97;;;;;;;24.68;37.76;96013.16;5089926;28;20035;-80
2022/07/17 06:37:14;;;;;;;3.00;2.50;;;;;;;24.78;36.30;96008.91;5060002;28;20521;-79
2022/07/17 06:39:40;;;;;;;5.85;2.35;;;;;;;25.09;35.79;96009.31;5088700;28;20023;-80
2022/07/17 06:42:05;;;;;;;4.22;2.45;;;;;;;25.41;35.19;96002.25;5054397;28;20116;-82
2022/07/17 06:44:31;;;;;;;3.25;2.50;;;;;;;25.59;36.41;96011.22;5070282;28;20039;-81
2022/07/17 06:46:56;;;;;;;5.80;2.80;;;;;;;25.54;37.59;96006.50;5070871;28;20103;-80
2022/07/17 06:49:22;;;;;;;3.03;2.42;;;;;;;25.03;36.25;96004.84;5070267;28;20028;-80
2022/07/17 06:51:47;;;;;;;6.70;2.58;;;;;;;25.23;36.76;96008.94;5087875;28;20028;-82
2022/07/17 06:54:15;;;;;;;8.68;2.83;;;;;;;25.17;36.03;96008.03;5070835;28;20032;-81
2022/07/17 06:56:40;;;;;;;6.45;2.90;;;;;;;25.08;36.50;96012.31;5087569;28;20032;-80
2022/07/17 06:59:08;;;;;;;3.97;2.80;;;;;;;24.94;36.71;96012.69;5070378;28;20032;-80
2022/07/17 07:01:35;;;;;;;4.13;3.03;;;;;;;24.94;36.28;96009.94;5087874;28;20077;-81
2022/07/17 07:04:00;;;;;;;3.63;2.22;;;;;;;25.43;36.26;96014.66;5070438;28;20024;-80
2022/07/17 07:06:26;;;;;;;5.30;2.60;;;;;;;25.12;36.49;96022.53;5053727;28;20047;-80
2022/07/17 07:08:51;;;;;;;4.60;2.67;;;;;;;25.14;36.00;96014.03;5088137;28;20025;-80
2022/07/17 07:11:16;;;;;;;5.25;2.60;;;;;;;25.50;36.42;96010.88;5070436;28;20414;-80
2022/07/17 07:13:42;;;;;;;6.40;4.25;;;;;;;25.85;35.75;96016.97;5068819;28;20048;-80
2022/07/17 07:16:07;;;;;;;6.75;2.75;;;;;;;25.87;35.79;96009.31;5086846;28;20078;-80
2022/07/17 07:18:33;;;;;;;5.88;2.60;;;;;;;25.87;36.38;96017.56;5068051;28;20028;-82
2022/07/17 07:20:58;;;;;;;3.38;2.35;;;;;;;25.77;36.52;96021.88;5052319;28;20036;-81
2022/07/17 07:23:24;;;;;;;3.90;2.10;;;;;;;25.48;35.10;96033.09;5086464;28;20409;-81
2022/07/17 07:25:50;;;;;;;5.57;2.50;;;;;;;25.51;35.87;96029.81;5068719;28;20020;-81
2022/07/17 07:28:15;;;;;;;4.55;2.78;;;;;;;25.89;35.65;96018.13;5086938;28;20020;-81
2022/07/17 07:30:41;;;;;;;5.07;2.47;;;;;;;26.09;35.12;96022.97;5067898;28;20028;-80
2022/07/17 07:33:06;;;;;;;5.57;2.55;;;;;;;25.85;35.20;96017.81;5068959;28;20036;-80
2022/07/17 07:35:32;;;;;;;3.83;2.58;;;;;;;25.99;34.42;96022.88;5085978;28;20028;-80
2022/07/17 07:37:57;;;;;;;2.88;2.30;;;;;;;25.39;35.81;96023.66;5086629;28;20043;-81
2022/07/17 07:40:23;;;;;;;3.95;2.67;;;;;;;25.45;35.26;96021.78;5067768;28;20555;-81
2022/07/17 07:42:48;;;;;;;4.47;2.47;;;;;;;25.29;36.20;96030.66;5068397;28;20043;-79
2022/07/17 07:45:13;;;;;;;4.18;2.55;;;;;;;25.50;36.25;96016.34;5052678;28;20418;-80
2022/07/17 07:47:43;;;;;;;3.22;2.17;;;;;;;25.63;34.76;96021.44;5087346;28;20051;-81
2022/07/17 07:50:09;;;;;;;4.82;2.30;;;;;;;25.97;36.92;96019.56;5052133;28;20134;-79
2022/07/17 07:52:34;;;;;;;5.75;2.70;;;;;;;26.28;34.66;96017.03;5067635;28;20024;-81
2022/07/17 07:55:00;;;;;;;4.43;2.53;;;;;;;26.10;34.58;96013.63;5051775;28;20077;-81
2022/07/17 07:57:25;;;;;;;5.88;2.67;;;;;;;25.54;35.39;96014.75;5067438;28;20032;-80
2022/07/17 07:59:51;;;;;;;6.97;2.45;;;;;;;25.94;35.07;96020.91;5086093;28;20028;-80
2022/07/17 08:02:16;;;;;;;2.70;2.00;;;;;;;25.38;35.75;96022.81;5085730;28;20032;-81
2022/07/17 08:04:41;;;;;;;3.50;2.13;;;;;;;25.92;36.32;96017.63;5067734;28;20032;-81
2022/07/17 08:07:07;;;;;;;3.75;2.45;;;;;;;26.13;36.10;96026.03;5067751;28;20344;-82
2022/07/17 08:09:32;;;;;;;4.97;2.78;;;;;;;25.57;35.82;96029.88;5067068;28;20027;-81
2022/07/17 08:11:58;;;;;;;4.82;2.47;;;;;;;25.55;36.17;96022.72;5086061;28;20407;-80
2022/07/17 08:14:23;;;;;;;3.72;2.67;;;;;;;25.73;36.48;96025.41;5007649;28;1231827;-81
2022/07/17 08:16:49;;;;;;;3.53;2.33;;;;;;;26.19;35.68;96022.22;5068664;28;20043;-81
2022/07/17 08:19:14;;;;;;;3.58;2.60;;;;;;;25.82;36.25;96023.84;5085934;28;20028;-81
2022/07/17 08:21:40;;;;;;;3.63;2.40;;;;;;;25.53;36.32;96022.16;5051562;28;20028;-81
2022/07/17 08:24:05;;;;;;;5.20;2.50;;;;;;;25.45;35.44;96028.13;5068030;28;20020;-81
2022/07/17 08:26:30;;;;;;;4.22;3.10;;;;;;;25.58;36.15;96024.13;5067394;28;20021;-81
2022/07/17 08:28:56;;;;;;;5.63;4.20;;;;;;;25.40;36.30;96019.81;5086254;28;20039;-81
2022/07/17 08:31:21;;;;;;;5.40;3.60;;;;;;;25.70;35.54;96026.75;5067933;28;20024;-81
2022/07/17 08:33:47;;;;;;;5.03;2.42;;;;;;;25.92;34.64;96023.09;5051529;28;20131;-82
2022/07/17 08:36:12;;;;;;;4.93;2.60;;;;;;;26.19;35.88;96021.38;5085738;28;20028;-80
2022/07/17 08:38:38;;;;;;;4.70;2.70;;;;;;;26.12;35.58;96027.09;5086563;28;20544;-81
2022/07/17 08:41:04;;;;;;;3.55;2.90;;;;;;;26.08;35.88;96014.97;5050679;28;20517;-81
2022/07/17 08:43:29;;;;;;;5.15;3.13;;;;;;;26.23;36.42;96017.84;5068505;28;20016;-82
2022/07/17 08:45:55;;;;;;;4.93;2.55;;;;;;;26.11;35.63;96018.03;5067772;28;20032;-80
2022/07/17 08:48:20;;;;;;;3.35;2.60;;;;;;;25.93;36.00;96008.25;5050994;28;20466;-81
2022/07/17 08:50:46;;;;;;;4.20;2.58;;;;;;;26.03;35.09;96013.03;5051431;28;20402;-81
2022/07/17 08:53:11;;;;;;;3.22;2.50;;;;;;;25.88;35.49;96013.72;5085265;28;20047;-82
2022/07/17 08:55:37;;;;;;;7.03;2.60;;;;;;;25.99;35.79;96012.72;5087468;28;20028;-80
2022/07/17 08:58:04;;;;;;;5.15;2.75;;;;;;;26.41;35.10;96008.38;5067102;28;20016;-80
2022/07/17 09:00:30;;;;;;;5.03;2.17;;;;;;;26.81;32.61;96012.72;5052135;28;20031;-81
2022/07/17 09:03:08;;;;;;;5.65;2.30;;;;;;;27.01;33.24;95998.25;5050680;28;20020;-81
2022/07/17 09:05:39;;;;;;;4.28;2.38;;;;;;;27.25;32.28;96004.13;5051168;28;20510;-81
2022/07/17 09:08:05;;;;;;;4.07;2.40;;;;;;;27.19;32.64;95999.72;5051864;28;20054;-81
2022/07/17 09:10:41;;;;;;;5.10;2.13;;;;;;;27.31;32.15;96001.41;5066827;28;20038;-81
2022/07/17 09:13:36;;;;;;;4.07;2.10;;;;;;;27.59;32.54;96008.34;5052324;28;20410;-81
2022/07/17 09:16:10;;;;;;;4.20;2.58;;;;;;;27.23;32.82;96005.50;5058406;28;20044;-81
2022/07/17 09:18:46;;;;;;;3.17;2.63;;;;;;;26.98;33.38;95994.09;5085473;28;20443;-82
2022/07/17 09:21:22;;;;;;;4.07;2.90;;;;;;;26.88;33.89;96005.06;5068236;28;20032;-81
2022/07/17 09:24:07;;;;;;;4.25;2.45;;;;;;;26.83;33.68;95996.75;5050135;28;20036;-82
2022/07/17 09:26:37;;;;;;;4.20;2.53;;;;;;;27.08;32.53;95998.00;5085701;28;20471;-81
2022/07/17 09:29:03;;;;;;;4.50;2.30;;;;;;;27.01;32.84;95995.50;5051049;28;20035;-81
2022/07/17 09:31:29;;;;;;;3.38;2.58;;;;;;;26.75;32.87;96003.59;5050908;28;20109;-81
2022/07/17 09:33:55;;;;;;;3.60;2.55;;;;;;;26.81;33.21;95998.97;5051182;28;20032;-80
2022/07/17 09:36:21;;;;;;;5.47;2.30;;;;;;;27.03;33.85;95999.66;5084945;28;20046;-81
2022/07/17 09:38:46;;;;;;;3.05;2.40;;;;;;;27.20;34.04;95995.84;5051314;28;20024;-82
2022/07/17 09:41:15;;;;;;;5.45;2.47;;;;;;;27.50;34.47;95999.78;5066255;28;20031;-82
2022/07/17 09:43:44;;;;;;;4.65;2.70;;;;;;;27.65;32.61;96000.91;5085572;28;20047;-82
2022/07/17 09:46:11;;;;;;;4.65;2.40;;;;;;;27.81;30.67;95998.22;5070932;28;20024;-81
2022/07/17 09:48:39;;;;;;;4.40;2.20;;;;;;;27.64;30.45;96002.00;5045885;28;20024;-81
2022/07/17 09:51:06;;;;;;;3.97;2.15;;;;;;;27.11;32.61;95997.47;5053452;28;20058;-81
2022/07/17 09:53:31;;;;;;;4.70;2.50;;;;;;;26.61;33.11;95998.59;5050765;28;20024;-82
2022/07/17 09:55:56;;;;;;;3.95;2.33;;;;;;;26.49;33.59;95998.81;5068405;28;20093;-81
2022/07/17 09:58:22;;;;;;;6.60;2.20;;;;;;;26.37;34.29;95995.44;5033403;28;20020;-80
2022/07/17 10:00:47;;;;;;;4.15;2.15;;;;;;;26.75;34.62;96000.84;5068077;28;20032;-80
2022/07/17 10:03:18;;;;;;;2.95;2.10;;;;;;;27.22;32.75;95998.31;5050184;28;20043;-81
2022/07/17 10:05:43;;;;;;;3.28;2.10;;;;;;;27.42;33.01;95994.81;5086031;28;20031;-81
2022/07/17 10:08:09;;;;;;;5.05;2.30;;;;;;;27.71;32.32;95999.84;5050747;28;20021;-80
2022/07/17 10:10:34;;;;;;;3.38;2.10;;;;;;;27.49;31.02;95998.13;5066720;28;20035;-80
2022/07/17 10:13:00;;;;;;;6.32;2.40;;;;;;;27.59;32.11;95993.72;5067330;28;20047;-82
2022/07/17 10:15:26;;;;;;;2.70;2.25;;;;;;;27.44;32.03;95992.59;5065882;28;20089;-81
2022/07/17 10:18:05;;;;;;;3.80;2.20;;;;;;;27.00;31.98;95985.56;5067551;28;20062;-81
2022/07/17 10:20:30;;;;;;;3.88;2.25;;;;;;;26.95;31.81;95986.38;5066186;28;20373;-80
2022/07/17 10:22:56;;;;;;;6.00;2.42;;;;;;;27.18;32.56;95981.50;5067120;28;20161;-81
2022/07/17 10:25:22;;;;;;;3.50;2.20;;;;;;;26.97;32.42;95975.91;5049766;28;20479;-81
2022/07/17 10:27:55;;;;;;;6.22;2.30;;;;;;;27.01;32.39;95981.75;5085015;28;20024;-81
2022/07/17 10:30:28;;;;;;;3.65;2.60;;;;;;;26.91;32.15;95977.00;5050494;28;20077;-80
2022/07/17 10:33:20;;;;;;;5.47;2.22;;;;;;;26.99;32.00;95979.22;5065822;28;20081;-81
2022/07/17 10:35:47;;;;;;;10.32;2.80;;;;;;;27.15;31.65;95977.41;5083272;28;20025;-81
2022/07/17 10:38:14;;;;;;;3.45;2.20;;;;;;;27.19;31.40;95974.94;5066564;28;20035;-82
2022/07/17 10:40:41;;;;;;;3.92;2.58;;;;;;;27.22;31.79;95971.63;5066606;28;20024;-82
2022/07/17 10:43:06;;;;;;;3.45;2.22;;;;;;;27.85;30.74;95969.00;5050338;28;20521;-81
2022/07/17 10:45:39;;;;;;;4.28;2.15;;;;;;;27.96;31.18;95967.88;5084207;28;20047;-82
2022/07/17 10:48:05;;;;;;;3.28;2.40;;;;;;;27.53;30.61;95976.38;5067864;28;20028;-79
2022/07/17 10:50:35;;;;;;;3.60;2.28;;;;;;;27.28;31.40;95965.03;5085397;28;20035;-81
2022/07/17 10:53:03;;;;;;;3.67;2.22;;;;;;;27.22;31.69;95954.28;5070995;28;20047;-79
2022/07/17 10:55:29;;;;;;;4.55;2.13;;;;;;;27.36;32.24;95957.34;5087849;28;20036;-81
2022/07/17 10:57:55;;;;;;;4.82;2.10;;;;;;;27.62;32.21;95960.13;5070262;28;20031;-83
2022/07/17 11:00:20;;;;;;;9.20;2.55;;;;;;;27.45;32.21;95952.97;5088458;28;20024;-82
2022/07/17 11:02:45;;;;;;;3.67;2.28;;;;;;;27.67;32.65;95957.41;5069082;28;20028;-81
2022/07/17 11:05:12;;;;;;;4.25;2.28;;;;;;;27.40;31.94;95956.53;5088423;28;20501;-82
2022/07/17 11:07:58;;;;;;;2.95;2.10;;;;;;;27.37;31.84;95950.75;5051915;28;20452;-81
2022/07/17 11:10:25;;;;;;;4.90;2.22;;;;;;;27.42;31.54;95948.00;5070176;28;20097;-81
2022/07/17 11:12:51;;;;;;;8.48;2.55;;;;;;;27.82;32.08;95950.25;5069798;28;20024;-81
2022/07/17 11:15:17;;;;;;;5.72;2.25;;;;;;;27.83;31.48;95946.38;5052985;28;20136;-82
2022/07/17 11:17:47;;;;;;;4.93;2.45;;;;;;;28.01;31.90;95945.84;5069730;28;20110;-81
2022/07/17 11:20:12;;;;;;;3.45;2.00;;;;;;;27.84;31.01;95950.81;5069368;28;20032;-81
2022/07/17 11:22:38;;;;;;;5.88;2.50;;;;;;;27.33;31.57;95955.13;5087696;28;20032;-80
2022/07/17 11:25:05;;;;;;;4.60;2.28;;;;;;;27.32;32.09;95950.72;5068436;28;20410;-82
2022/07/17 11:27:30;;;;;;;3.50;2.50;;;;;;;27.46;32.45;95937.25;5087837;28;20024;-80
2022/07/17 11:29:57;;;;;;;3.22;2.25;;;;;;;27.63;32.56;95937.00;5086881;28;20035;-82